sensor_id;sensor_type;location;lat;lon;timestamp;P1;durP1;ratioP1;P2;durP2;ratioP2
60665;SDS011;59128;44.642;21.188;2023-02-13T00:01:48;226.35;;;168.02;;
60665;SDS011;59128;44.642;21.188;2023-02-13T00:04:14;230.02;;;162.50;;
60665;SDS011;59128;44.642;21.188;2023-02-13T00:06:40;206.43;;;146.43;;
60665;SDS011;59128;44.642;21.188;2023-02-13T00:09:06;156.07;;;115.25;;
60665;SDS011;59128;44.642;21.188;2023-02-13T00:11:35;166.80;;;119.40;;
60665;SDS011;59128;44.642;21.188;2023-02-13T00:14:01;168.17;;;115.33;;
60665;SDS011;59128;44.642;21.188;2023-02-13T00:16:27;179.65;;;125.28;;
60665;SDS011;59128;44.642;21.188;2023-02-13T00:18:53;157.13;;;112.95;;
60665;SDS011;59128;44.642;21.188;2023-02-13T00:21:19;128.15;;;92.47;;
60665;SDS011;59128;44.642;21.188;2023-02-13T00:23:45;115.32;;;83.63;;
60665;SDS011;59128;44.642;21.188;2023-02-13T00:26:12;104.70;;;73.87;;
60665;SDS011;59128;44.642;21.188;2023-02-13T00:28:38;97.10;;;70.57;;
60665;SDS011;59128;44.642;21.188;2023-02-13T00:31:08;94.50;;;69.03;;
60665;SDS011;59128;44.642;21.188;2023-02-13T00:33:34;90.43;;;64.97;;
60665;SDS011;59128;44.642;21.188;2023-02-13T00:36:05;93.28;;;67.82;;
60665;SDS011;59128;44.642;21.188;2023-02-13T00:38:31;100.38;;;71.38;;
60665;SDS011;59128;44.642;21.188;2023-02-13T00:40:57;145.88;;;99.70;;
60665;SDS011;59128;44.642;21.188;2023-02-13T00:43:23;132.17;;;99.77;;
60665;SDS011;59128;44.642;21.188;2023-02-13T00:45:49;116.25;;;89.35;;
60665;SDS011;59128;44.642;21.188;2023-02-13T00:48:15;92.05;;;68.28;;
60665;SDS011;59128;44.642;21.188;2023-02-13T00:50:41;89.85;;;65.78;;
60665;SDS011;59128;44.642;21.188;2023-02-13T00:53:07;87.85;;;65.80;;
60665;SDS011;59128;44.642;21.188;2023-02-13T00:55:33;86.27;;;65.00;;
60665;SDS011;59128;44.642;21.188;2023-02-13T00:57:59;107.78;;;78.35;;
60665;SDS011;59128;44.642;21.188;2023-02-13T01:00:26;102.35;;;74.45;;
60665;SDS011;59128;44.642;21.188;2023-02-13T01:02:52;104.32;;;75.97;;
60665;SDS011;59128;44.642;21.188;2023-02-13T01:05:18;105.43;;;76.85;;
60665;SDS011;59128;44.642;21.188;2023-02-13T01:07:44;99.53;;;72.15;;
60665;SDS011;59128;44.642;21.188;2023-02-13T01:10:10;97.22;;;70.28;;
60665;SDS011;59128;44.642;21.188;2023-02-13T01:12:36;96.57;;;70.32;;
60665;SDS011;59128;44.642;21.188;2023-02-13T01:15:03;95.05;;;68.28;;
60665;SDS011;59128;44.642;21.188;2023-02-13T01:17:29;93.07;;;68.82;;
60665;SDS011;59128;44.642;21.188;2023-02-13T01:19:55;153.35;;;105.25;;
60665;SDS011;59128;44.642;21.188;2023-02-13T01:22:21;152.00;;;105.70;;
60665;SDS011;59128;44.642;21.188;2023-02-13T01:24:47;102.50;;;73.50;;
60665;SDS011;59128;44.642;21.188;2023-02-13T01:27:13;101.60;;;74.03;;
60665;SDS011;59128;44.642;21.188;2023-02-13T01:29:39;99.55;;;71.60;;
60665;SDS011;59128;44.642;21.188;2023-02-13T01:32:05;103.85;;;74.30;;
60665;SDS011;59128;44.642;21.188;2023-02-13T01:34:32;101.17;;;72.20;;
60665;SDS011;59128;44.642;21.188;2023-02-13T01:36:58;95.93;;;70.18;;
60665;SDS011;59128;44.642;21.188;2023-02-13T01:39:24;96.45;;;70.90;;
60665;SDS011;59128;44.642;21.188;2023-02-13T01:41:50;100.10;;;71.95;;
60665;SDS011;59128;44.642;21.188;2023-02-13T01:47:01;104.63;;;75.05;;
60665;SDS011;59128;44.642;21.188;2023-02-13T01:49:27;104.80;;;73.57;;
60665;SDS011;59128;44.642;21.188;2023-02-13T01:51:53;108.95;;;77.35;;
60665;SDS011;59128;44.642;21.188;2023-02-13T01:54:21;107.18;;;77.55;;
60665;SDS011;59128;44.642;21.188;2023-02-13T01:56:52;101.50;;;73.50;;
60665;SDS011;59128;44.642;21.188;2023-02-13T01:59:21;105.97;;;75.30;;
60665;SDS011;59128;44.642;21.188;2023-02-13T02:01:49;101.55;;;72.50;;
60665;SDS011;59128;44.642;21.188;2023-02-13T02:04:16;99.07;;;68.55;;
60665;SDS011;59128;44.642;21.188;2023-02-13T02:06:45;100.50;;;72.35;;
60665;SDS011;59128;44.642;21.188;2023-02-13T02:09:15;100.25;;;72.53;;
60665;SDS011;59128;44.642;21.188;2023-02-13T02:11:59;105.30;;;74.40;;
60665;SDS011;59128;44.642;21.188;2023-02-13T02:14:26;111.53;;;78.27;;
60665;SDS011;59128;44.642;21.188;2023-02-13T02:16:52;104.85;;;75.18;;
60665;SDS011;59128;44.642;21.188;2023-02-13T02:19:21;101.68;;;74.40;;
60665;SDS011;59128;44.642;21.188;2023-02-13T02:27:13;113.47;;;78.03;;
60665;SDS011;59128;44.642;21.188;2023-02-13T02:30:43;104.60;;;75.65;;
60665;SDS011;59128;44.642;21.188;2023-02-13T02:48:14;158.73;;;105.40;;
60665;SDS011;59128;44.642;21.188;2023-02-13T02:51:18;149.50;;;99.70;;
60665;SDS011;59128;44.642;21.188;2023-02-13T03:01:26;168.63;;;107.18;;
60665;SDS011;59128;44.642;21.188;2023-02-13T03:04:25;166.88;;;108.00;;
60665;SDS011;59128;44.642;21.188;2023-02-13T03:07:13;138.48;;;94.68;;
60665;SDS011;59128;44.642;21.188;2023-02-13T03:09:40;185.63;;;119.32;;
60665;SDS011;59128;44.642;21.188;2023-02-13T03:12:28;162.20;;;105.97;;
60665;SDS011;59128;44.642;21.188;2023-02-13T03:15:14;160.60;;;105.40;;
60665;SDS011;59128;44.642;21.188;2023-02-13T03:17:40;150.43;;;103.03;;
60665;SDS011;59128;44.642;21.188;2023-02-13T03:20:29;165.75;;;111.57;;
60665;SDS011;59128;44.642;21.188;2023-02-13T03:28:51;177.15;;;119.30;;
60665;SDS011;59128;44.642;21.188;2023-02-13T03:31:47;171.07;;;111.63;;
60665;SDS011;59128;44.642;21.188;2023-02-13T03:34:22;161.20;;;108.28;;
60665;SDS011;59128;44.642;21.188;2023-02-13T03:37:01;160.02;;;106.03;;
60665;SDS011;59128;44.642;21.188;2023-02-13T03:42:31;156.10;;;105.13;;
60665;SDS011;59128;44.642;21.188;2023-02-13T03:44:59;150.45;;;103.45;;
60665;SDS011;59128;44.642;21.188;2023-02-13T03:47:45;143.30;;;100.00;;
60665;SDS011;59128;44.642;21.188;2023-02-13T03:50:12;144.07;;;99.83;;
60665;SDS011;59128;44.642;21.188;2023-02-13T03:55:13;142.63;;;99.90;;
60665;SDS011;59128;44.642;21.188;2023-02-13T03:58:02;137.88;;;95.47;;
60665;SDS011;59128;44.642;21.188;2023-02-13T04:00:52;138.25;;;95.15;;
60665;SDS011;59128;44.642;21.188;2023-02-13T04:05:52;137.40;;;95.43;;
60665;SDS011;59128;44.642;21.188;2023-02-13T04:08:19;134.68;;;93.15;;
60665;SDS011;59128;44.642;21.188;2023-02-13T04:11:32;135.88;;;96.43;;
60665;SDS011;59128;44.642;21.188;2023-02-13T04:13:38;129.40;;;92.50;;
60665;SDS011;59128;44.642;21.188;2023-02-13T04:16:09;137.05;;;95.72;;
60665;SDS011;59128;44.642;21.188;2023-02-13T04:18:36;128.80;;;93.03;;
60665;SDS011;59128;44.642;21.188;2023-02-13T04:21:03;132.50;;;92.93;;
60665;SDS011;59128;44.642;21.188;2023-02-13T04:23:29;133.30;;;94.47;;
60665;SDS011;59128;44.642;21.188;2023-02-13T04:25:56;130.67;;;94.03;;
60665;SDS011;59128;44.642;21.188;2023-02-13T04:28:23;127.75;;;91.82;;
60665;SDS011;59128;44.642;21.188;2023-02-13T04:30:49;122.30;;;88.03;;
60665;SDS011;59128;44.642;21.188;2023-02-13T04:33:15;118.72;;;85.72;;
60665;SDS011;59128;44.642;21.188;2023-02-13T04:35:41;129.83;;;93.03;;
60665;SDS011;59128;44.642;21.188;2023-02-13T04:38:07;116.75;;;85.53;;
60665;SDS011;59128;44.642;21.188;2023-02-13T04:40:33;119.68;;;86.85;;
60665;SDS011;59128;44.642;21.188;2023-02-13T04:42:59;117.82;;;86.35;;
60665;SDS011;59128;44.642;21.188;2023-02-13T04:45:25;119.75;;;87.55;;
60665;SDS011;59128;44.642;21.188;2023-02-13T04:47:52;117.50;;;85.22;;
60665;SDS011;59128;44.642;21.188;2023-02-13T04:50:18;112.68;;;84.20;;
60665;SDS011;59128;44.642;21.188;2023-02-13T04:52:45;115.57;;;85.03;;
60665;SDS011;59128;44.642;21.188;2023-02-13T04:55:11;111.05;;;81.22;;
60665;SDS011;59128;44.642;21.188;2023-02-13T04:57:37;109.60;;;80.25;;
60665;SDS011;59128;44.642;21.188;2023-02-13T05:00:04;105.53;;;76.70;;
60665;SDS011;59128;44.642;21.188;2023-02-13T05:02:31;105.10;;;75.78;;
60665;SDS011;59128;44.642;21.188;2023-02-13T05:04:57;105.78;;;75.88;;
60665;SDS011;59128;44.642;21.188;2023-02-13T05:07:23;102.90;;;74.90;;
60665;SDS011;59128;44.642;21.188;2023-02-13T05:09:49;105.28;;;77.25;;
60665;SDS011;59128;44.642;21.188;2023-02-13T05:12:15;104.43;;;75.13;;
60665;SDS011;59128;44.642;21.188;2023-02-13T05:14:41;101.97;;;73.88;;
60665;SDS011;59128;44.642;21.188;2023-02-13T05:17:07;104.38;;;75.25;;
60665;SDS011;59128;44.642;21.188;2023-02-13T05:19:33;106.83;;;76.13;;
60665;SDS011;59128;44.642;21.188;2023-02-13T05:21:59;105.93;;;75.95;;
60665;SDS011;59128;44.642;21.188;2023-02-13T05:24:43;106.38;;;76.10;;
60665;SDS011;59128;44.642;21.188;2023-02-13T05:27:09;106.90;;;77.03;;
60665;SDS011;59128;44.642;21.188;2023-02-13T05:29:35;106.05;;;74.65;;
60665;SDS011;59128;44.642;21.188;2023-02-13T05:32:01;99.72;;;73.57;;
60665;SDS011;59128;44.642;21.188;2023-02-13T05:34:28;98.65;;;73.57;;
60665;SDS011;59128;44.642;21.188;2023-02-13T05:36:54;100.35;;;73.38;;
60665;SDS011;59128;44.642;21.188;2023-02-13T05:39:20;99.53;;;72.45;;
60665;SDS011;59128;44.642;21.188;2023-02-13T05:41:46;101.47;;;74.87;;
60665;SDS011;59128;44.642;21.188;2023-02-13T05:44:12;106.20;;;77.63;;
60665;SDS011;59128;44.642;21.188;2023-02-13T05:46:39;110.47;;;79.13;;
60665;SDS011;59128;44.642;21.188;2023-02-13T05:49:06;105.70;;;76.53;;
60665;SDS011;59128;44.642;21.188;2023-02-13T05:51:32;108.65;;;77.43;;
60665;SDS011;59128;44.642;21.188;2023-02-13T05:53:58;113.97;;;81.00;;
60665;SDS011;59128;44.642;21.188;2023-02-13T05:56:24;111.10;;;79.47;;
60665;SDS011;59128;44.642;21.188;2023-02-13T05:58:50;116.87;;;85.03;;
60665;SDS011;59128;44.642;21.188;2023-02-13T06:01:16;118.03;;;85.93;;
60665;SDS011;59128;44.642;21.188;2023-02-13T06:03:43;118.57;;;84.25;;
60665;SDS011;59128;44.642;21.188;2023-02-13T06:06:09;117.53;;;82.00;;
60665;SDS011;59128;44.642;21.188;2023-02-13T06:08:35;115.75;;;83.20;;
60665;SDS011;59128;44.642;21.188;2023-02-13T06:11:01;171.65;;;114.68;;
60665;SDS011;59128;44.642;21.188;2023-02-13T06:13:27;236.75;;;154.35;;
60665;SDS011;59128;44.642;21.188;2023-02-13T06:15:53;194.23;;;127.75;;
60665;SDS011;59128;44.642;21.188;2023-02-13T06:18:19;158.77;;;109.20;;
60665;SDS011;59128;44.642;21.188;2023-02-13T06:20:45;170.88;;;118.50;;
60665;SDS011;59128;44.642;21.188;2023-02-13T06:23:11;172.97;;;119.00;;
60665;SDS011;59128;44.642;21.188;2023-02-13T06:25:37;162.07;;;113.90;;
60665;SDS011;59128;44.642;21.188;2023-02-13T06:28:03;230.30;;;156.27;;
60665;SDS011;59128;44.642;21.188;2023-02-13T06:30:29;236.43;;;175.32;;
60665;SDS011;59128;44.642;21.188;2023-02-13T06:32:55;209.43;;;147.47;;
60665;SDS011;59128;44.642;21.188;2023-02-13T06:35:21;213.20;;;136.80;;
60665;SDS011;59128;44.642;21.188;2023-02-13T06:37:47;216.20;;;146.57;;
60665;SDS011;59128;44.642;21.188;2023-02-13T06:40:13;228.35;;;160.00;;
60665;SDS011;59128;44.642;21.188;2023-02-13T06:42:43;222.98;;;156.93;;
60665;SDS011;59128;44.642;21.188;2023-02-13T06:45:10;203.90;;;139.80;;
60665;SDS011;59128;44.642;21.188;2023-02-13T06:47:39;175.85;;;122.72;;
60665;SDS011;59128;44.642;21.188;2023-02-13T06:50:06;158.90;;;113.97;;
60665;SDS011;59128;44.642;21.188;2023-02-13T06:52:32;155.77;;;112.10;;
60665;SDS011;59128;44.642;21.188;2023-02-13T06:54:58;151.25;;;108.07;;
60665;SDS011;59128;44.642;21.188;2023-02-13T06:57:24;145.25;;;104.90;;
60665;SDS011;59128;44.642;21.188;2023-02-13T06:59:51;168.00;;;119.88;;
60665;SDS011;59128;44.642;21.188;2023-02-13T07:02:17;160.38;;;114.68;;
60665;SDS011;59128;44.642;21.188;2023-02-13T07:04:43;155.50;;;111.53;;
60665;SDS011;59128;44.642;21.188;2023-02-13T07:07:09;169.43;;;120.35;;
60665;SDS011;59128;44.642;21.188;2023-02-13T07:09:35;162.13;;;116.55;;
60665;SDS011;59128;44.642;21.188;2023-02-13T07:12:01;156.53;;;115.70;;
60665;SDS011;59128;44.642;21.188;2023-02-13T07:14:27;147.68;;;109.88;;
60665;SDS011;59128;44.642;21.188;2023-02-13T07:16:53;139.93;;;104.53;;
60665;SDS011;59128;44.642;21.188;2023-02-13T07:19:19;132.90;;;98.82;;
60665;SDS011;59128;44.642;21.188;2023-02-13T07:21:45;143.63;;;107.65;;
60665;SDS011;59128;44.642;21.188;2023-02-13T07:24:11;141.02;;;103.78;;
60665;SDS011;59128;44.642;21.188;2023-02-13T07:26:37;145.52;;;107.38;;
60665;SDS011;59128;44.642;21.188;2023-02-13T07:29:03;146.00;;;104.05;;
60665;SDS011;59128;44.642;21.188;2023-02-13T07:31:33;150.45;;;102.50;;
60665;SDS011;59128;44.642;21.188;2023-02-13T07:33:59;187.50;;;115.80;;
60665;SDS011;59128;44.642;21.188;2023-02-13T07:36:26;172.68;;;115.57;;
60665;SDS011;59128;44.642;21.188;2023-02-13T07:38:52;129.93;;;95.07;;
60665;SDS011;59128;44.642;21.188;2023-02-13T07:41:18;127.25;;;94.25;;
60665;SDS011;59128;44.642;21.188;2023-02-13T07:43:44;128.68;;;98.13;;
60665;SDS011;59128;44.642;21.188;2023-02-13T07:46:10;128.35;;;98.95;;
60665;SDS011;59128;44.642;21.188;2023-02-13T07:48:36;126.93;;;98.73;;
60665;SDS011;59128;44.642;21.188;2023-02-13T07:51:03;127.25;;;99.28;;
60665;SDS011;59128;44.642;21.188;2023-02-13T07:53:30;130.23;;;100.60;;
60665;SDS011;59128;44.642;21.188;2023-02-13T07:55:56;126.80;;;100.38;;
60665;SDS011;59128;44.642;21.188;2023-02-13T07:58:22;127.78;;;103.30;;
60665;SDS011;59128;44.642;21.188;2023-02-13T08:00:48;132.70;;;105.20;;
60665;SDS011;59128;44.642;21.188;2023-02-13T08:03:14;129.75;;;105.78;;
60665;SDS011;59128;44.642;21.188;2023-02-13T08:05:40;134.45;;;110.25;;
60665;SDS011;59128;44.642;21.188;2023-02-13T08:08:06;126.72;;;105.47;;
60665;SDS011;59128;44.642;21.188;2023-02-13T08:10:32;128.45;;;106.85;;
60665;SDS011;59128;44.642;21.188;2023-02-13T08:13:16;131.13;;;111.70;;
60665;SDS011;59128;44.642;21.188;2023-02-13T08:15:43;126.72;;;106.65;;
60665;SDS011;59128;44.642;21.188;2023-02-13T08:18:09;129.90;;;109.00;;
60665;SDS011;59128;44.642;21.188;2023-02-13T08:20:35;129.52;;;107.63;;
60665;SDS011;59128;44.642;21.188;2023-02-13T08:23:02;122.78;;;102.57;;
60665;SDS011;59128;44.642;21.188;2023-02-13T08:25:28;135.73;;;113.30;;
60665;SDS011;59128;44.642;21.188;2023-02-13T08:27:54;117.75;;;100.80;;
60665;SDS011;59128;44.642;21.188;2023-02-13T08:30:20;115.60;;;100.40;;
60665;SDS011;59128;44.642;21.188;2023-02-13T08:32:46;116.18;;;103.47;;
60665;SDS011;59128;44.642;21.188;2023-02-13T08:35:28;104.35;;;92.85;;
60665;SDS011;59128;44.642;21.188;2023-02-13T08:37:55;120.63;;;100.55;;
60665;SDS011;59128;44.642;21.188;2023-02-13T08:40:22;103.43;;;90.80;;
60665;SDS011;59128;44.642;21.188;2023-02-13T08:42:48;283.30;;;253.38;;
60665;SDS011;59128;44.642;21.188;2023-02-13T08:45:14;205.53;;;185.17;;
60665;SDS011;59128;44.642;21.188;2023-02-13T08:47:40;99.40;;;83.40;;
60665;SDS011;59128;44.642;21.188;2023-02-13T08:50:06;89.72;;;74.53;;
60665;SDS011;59128;44.642;21.188;2023-02-13T08:52:32;91.85;;;77.43;;
60665;SDS011;59128;44.642;21.188;2023-02-13T08:54:58;94.93;;;79.15;;
60665;SDS011;59128;44.642;21.188;2023-02-13T08:57:24;97.57;;;82.13;;
60665;SDS011;59128;44.642;21.188;2023-02-13T08:59:50;111.53;;;90.47;;
60665;SDS011;59128;44.642;21.188;2023-02-13T09:02:16;115.78;;;98.63;;
60665;SDS011;59128;44.642;21.188;2023-02-13T09:04:42;100.25;;;82.80;;
60665;SDS011;59128;44.642;21.188;2023-02-13T09:07:08;109.63;;;89.18;;
60665;SDS011;59128;44.642;21.188;2023-02-13T09:09:34;100.40;;;80.43;;
60665;SDS011;59128;44.642;21.188;2023-02-13T09:12:00;84.07;;;69.10;;
60665;SDS011;59128;44.642;21.188;2023-02-13T09:14:26;80.35;;;63.45;;
60665;SDS011;59128;44.642;21.188;2023-02-13T09:16:52;74.25;;;61.92;;
60665;SDS011;59128;44.642;21.188;2023-02-13T09:19:18;89.03;;;70.03;;
60665;SDS011;59128;44.642;21.188;2023-02-13T09:21:44;88.53;;;71.25;;
60665;SDS011;59128;44.642;21.188;2023-02-13T09:24:10;90.82;;;71.45;;
60665;SDS011;59128;44.642;21.188;2023-02-13T09:26:36;92.28;;;71.63;;
60665;SDS011;59128;44.642;21.188;2023-02-13T09:29:02;94.30;;;82.73;;
60665;SDS011;59128;44.642;21.188;2023-02-13T09:31:28;91.32;;;78.20;;
60665;SDS011;59128;44.642;21.188;2023-02-13T09:33:54;97.07;;;83.07;;
60665;SDS011;59128;44.642;21.188;2023-02-13T09:36:21;91.93;;;77.10;;
60665;SDS011;59128;44.642;21.188;2023-02-13T09:38:52;88.60;;;75.47;;
60665;SDS011;59128;44.642;21.188;2023-02-13T09:41:19;88.20;;;75.00;;
60665;SDS011;59128;44.642;21.188;2023-02-13T09:43:53;84.63;;;71.38;;
60665;SDS011;59128;44.642;21.188;2023-02-13T09:46:21;85.77;;;72.47;;
60665;SDS011;59128;44.642;21.188;2023-02-13T09:48:49;86.55;;;72.50;;
60665;SDS011;59128;44.642;21.188;2023-02-13T09:51:17;98.45;;;87.03;;
60665;SDS011;59128;44.642;21.188;2023-02-13T09:53:52;82.90;;;70.25;;
60665;SDS011;59128;44.642;21.188;2023-02-13T09:56:43;80.75;;;66.97;;
60665;SDS011;59128;44.642;21.188;2023-02-13T10:01:50;74.60;;;61.58;;
60665;SDS011;59128;44.642;21.188;2023-02-13T10:04:24;70.88;;;58.97;;
60665;SDS011;59128;44.642;21.188;2023-02-13T10:07:07;72.57;;;60.53;;
60665;SDS011;59128;44.642;21.188;2023-02-13T10:09:41;73.70;;;62.53;;
60665;SDS011;59128;44.642;21.188;2023-02-13T10:14:53;51.38;;;42.70;;
60665;SDS011;59128;44.642;21.188;2023-02-13T10:17:31;53.50;;;44.83;;
60665;SDS011;59128;44.642;21.188;2023-02-13T10:19:59;53.55;;;45.72;;
60665;SDS011;59128;44.642;21.188;2023-02-13T10:25:02;59.50;;;49.53;;
60665;SDS011;59128;44.642;21.188;2023-02-13T10:27:36;59.03;;;48.63;;
60665;SDS011;59128;44.642;21.188;2023-02-13T10:30:14;58.30;;;48.67;;
60665;SDS011;59128;44.642;21.188;2023-02-13T10:35:51;54.28;;;46.30;;
60665;SDS011;59128;44.642;21.188;2023-02-13T10:38:19;49.15;;;42.30;;
60665;SDS011;59128;44.642;21.188;2023-02-13T10:43:38;47.17;;;39.65;;
60665;SDS011;59128;44.642;21.188;2023-02-13T10:46:08;37.85;;;33.45;;
60665;SDS011;59128;44.642;21.188;2023-02-13T10:51:10;38.17;;;32.88;;
60665;SDS011;59128;44.642;21.188;2023-02-13T10:56:24;39.42;;;33.50;;
60665;SDS011;59128;44.642;21.188;2023-02-13T11:01:41;42.92;;;36.50;;
60665;SDS011;59128;44.642;21.188;2023-02-13T11:06:36;41.95;;;35.42;;
60665;SDS011;59128;44.642;21.188;2023-02-13T11:09:04;43.72;;;36.90;;
60665;SDS011;59128;44.642;21.188;2023-02-13T11:16:39;48.30;;;38.75;;
60665;SDS011;59128;44.642;21.188;2023-02-13T11:19:05;46.22;;;37.25;;
60665;SDS011;59128;44.642;21.188;2023-02-13T11:21:34;43.88;;;37.67;;
60665;SDS011;59128;44.642;21.188;2023-02-13T11:24:02;43.90;;;37.50;;
60665;SDS011;59128;44.642;21.188;2023-02-13T11:29:05;52.35;;;45.35;;
60665;SDS011;59128;44.642;21.188;2023-02-13T11:31:39;50.25;;;40.35;;
60665;SDS011;59128;44.642;21.188;2023-02-13T11:36:54;44.20;;;37.75;;
60665;SDS011;59128;44.642;21.188;2023-02-13T11:39:32;45.28;;;37.50;;
60665;SDS011;59128;44.642;21.188;2023-02-13T11:41:58;52.28;;;41.00;;
60665;SDS011;59128;44.642;21.188;2023-02-13T11:44:25;45.42;;;37.30;;
60665;SDS011;59128;44.642;21.188;2023-02-13T11:46:52;40.10;;;34.53;;
60665;SDS011;59128;44.642;21.188;2023-02-13T11:49:22;43.08;;;33.95;;
60665;SDS011;59128;44.642;21.188;2023-02-13T11:51:50;35.85;;;28.88;;
60665;SDS011;59128;44.642;21.188;2023-02-13T11:59:29;32.47;;;27.80;;
60665;SDS011;59128;44.642;21.188;2023-02-13T12:04:28;27.90;;;23.83;;
60665;SDS011;59128;44.642;21.188;2023-02-13T12:07:01;26.77;;;23.15;;
60665;SDS011;59128;44.642;21.188;2023-02-13T12:09:28;28.67;;;24.33;;
60665;SDS011;59128;44.642;21.188;2023-02-13T12:11:59;28.50;;;24.48;;
60665;SDS011;59128;44.642;21.188;2023-02-13T12:14:47;28.42;;;24.73;;
60665;SDS011;59128;44.642;21.188;2023-02-13T12:17:19;33.80;;;26.08;;
60665;SDS011;59128;44.642;21.188;2023-02-13T12:19:47;29.48;;;25.15;;
60665;SDS011;59128;44.642;21.188;2023-02-13T12:27:53;28.35;;;23.92;;
60665;SDS011;59128;44.642;21.188;2023-02-13T12:38:46;21.23;;;17.80;;
60665;SDS011;59128;44.642;21.188;2023-02-13T12:41:17;19.00;;;16.45;;
60665;SDS011;59128;44.642;21.188;2023-02-13T12:56:39;20.95;;;18.10;;
60665;SDS011;59128;44.642;21.188;2023-02-13T12:59:15;21.50;;;18.67;;
60665;SDS011;59128;44.642;21.188;2023-02-13T13:13:05;20.87;;;17.13;;
60665;SDS011;59128;44.642;21.188;2023-02-13T13:22:31;19.52;;;16.38;;
60665;SDS011;59128;44.642;21.188;2023-02-13T13:25:09;19.02;;;16.55;;
60665;SDS011;59128;44.642;21.188;2023-02-13T13:27:45;16.08;;;14.38;;
60665;SDS011;59128;44.642;21.188;2023-02-13T13:30:19;19.88;;;17.25;;
60665;SDS011;59128;44.642;21.188;2023-02-13T13:32:51;18.90;;;16.17;;
60665;SDS011;59128;44.642;21.188;2023-02-13T13:35:18;17.13;;;15.10;;
60665;SDS011;59128;44.642;21.188;2023-02-13T13:37:47;16.58;;;14.45;;
60665;SDS011;59128;44.642;21.188;2023-02-13T13:40:33;17.70;;;15.35;;
60665;SDS011;59128;44.642;21.188;2023-02-13T13:50:39;19.05;;;16.05;;
60665;SDS011;59128;44.642;21.188;2023-02-13T14:01:28;19.58;;;17.38;;
60665;SDS011;59128;44.642;21.188;2023-02-13T14:03:58;21.95;;;16.95;;
60665;SDS011;59128;44.642;21.188;2023-02-13T14:09:35;20.38;;;17.33;;
60665;SDS011;59128;44.642;21.188;2023-02-13T14:12:34;20.45;;;18.05;;
60665;SDS011;59128;44.642;21.188;2023-02-13T14:14:47;20.95;;;18.17;;
60665;SDS011;59128;44.642;21.188;2023-02-13T14:17:14;25.63;;;19.63;;
60665;SDS011;59128;44.642;21.188;2023-02-13T14:19:41;22.83;;;19.55;;
60665;SDS011;59128;44.642;21.188;2023-02-13T14:24:53;22.80;;;19.42;;
60665;SDS011;59128;44.642;21.188;2023-02-13T14:27:30;24.58;;;20.30;;
60665;SDS011;59128;44.642;21.188;2023-02-13T14:29:56;22.05;;;19.63;;
60665;SDS011;59128;44.642;21.188;2023-02-13T14:32:36;23.88;;;19.90;;
60665;SDS011;59128;44.642;21.188;2023-02-13T14:35:15;23.52;;;20.55;;
60665;SDS011;59128;44.642;21.188;2023-02-13T14:42:43;25.25;;;21.17;;
60665;SDS011;59128;44.642;21.188;2023-02-13T14:45:15;25.60;;;21.33;;
60665;SDS011;59128;44.642;21.188;2023-02-13T14:47:49;24.30;;;21.52;;
60665;SDS011;59128;44.642;21.188;2023-02-13T14:50:31;24.10;;;21.30;;
60665;SDS011;59128;44.642;21.188;2023-02-13T14:52:59;23.30;;;20.80;;
60665;SDS011;59128;44.642;21.188;2023-02-13T14:55:32;23.83;;;20.58;;
60665;SDS011;59128;44.642;21.188;2023-02-13T14:58:01;28.35;;;20.95;;
60665;SDS011;59128;44.642;21.188;2023-02-13T15:03:07;23.45;;;20.25;;
60665;SDS011;59128;44.642;21.188;2023-02-13T15:05:38;26.60;;;21.40;;
60665;SDS011;59128;44.642;21.188;2023-02-13T15:08:06;24.88;;;20.85;;
60665;SDS011;59128;44.642;21.188;2023-02-13T15:10:46;24.00;;;20.88;;
60665;SDS011;59128;44.642;21.188;2023-02-13T15:13:17;24.35;;;20.85;;
60665;SDS011;59128;44.642;21.188;2023-02-13T15:15:47;25.48;;;20.65;;
60665;SDS011;59128;44.642;21.188;2023-02-13T15:18:18;28.10;;;23.10;;
60665;SDS011;59128;44.642;21.188;2023-02-13T15:20:44;30.98;;;23.75;;
60665;SDS011;59128;44.642;21.188;2023-02-13T15:23:29;27.98;;;22.77;;
60665;SDS011;59128;44.642;21.188;2023-02-13T15:26:04;27.08;;;22.85;;
60665;SDS011;59128;44.642;21.188;2023-02-13T15:28:30;30.13;;;22.60;;
60665;SDS011;59128;44.642;21.188;2023-02-13T15:30:58;29.38;;;22.85;;
60665;SDS011;59128;44.642;21.188;2023-02-13T15:33:30;27.55;;;22.67;;
60665;SDS011;59128;44.642;21.188;2023-02-13T15:35:58;29.38;;;24.70;;
60665;SDS011;59128;44.642;21.188;2023-02-13T15:38:27;27.93;;;23.83;;
60665;SDS011;59128;44.642;21.188;2023-02-13T15:40:58;28.05;;;23.55;;
60665;SDS011;59128;44.642;21.188;2023-02-13T15:43:45;29.00;;;23.67;;
60665;SDS011;59128;44.642;21.188;2023-02-13T15:46:33;27.35;;;23.35;;
60665;SDS011;59128;44.642;21.188;2023-02-13T15:49:10;29.40;;;24.63;;
60665;SDS011;59128;44.642;21.188;2023-02-13T15:51:38;28.02;;;23.85;;
60665;SDS011;59128;44.642;21.188;2023-02-13T15:54:05;79.65;;;57.63;;
60665;SDS011;59128;44.642;21.188;2023-02-13T15:56:31;55.90;;;42.55;;
60665;SDS011;59128;44.642;21.188;2023-02-13T15:58:58;46.05;;;35.75;;
60665;SDS011;59128;44.642;21.188;2023-02-13T16:01:25;37.40;;;30.52;;
60665;SDS011;59128;44.642;21.188;2023-02-13T16:03:59;37.47;;;29.52;;
60665;SDS011;59128;44.642;21.188;2023-02-13T16:06:27;36.83;;;30.42;;
60665;SDS011;59128;44.642;21.188;2023-02-13T16:08:57;47.15;;;36.28;;
60665;SDS011;59128;44.642;21.188;2023-02-13T16:11:31;43.08;;;33.72;;
60665;SDS011;59128;44.642;21.188;2023-02-13T16:16:35;65.70;;;49.85;;
60665;SDS011;59128;44.642;21.188;2023-02-13T16:19:14;73.60;;;55.55;;
60665;SDS011;59128;44.642;21.188;2023-02-13T16:21:42;122.13;;;84.68;;
60665;SDS011;59128;44.642;21.188;2023-02-13T16:24:08;157.80;;;104.78;;
60665;SDS011;59128;44.642;21.188;2023-02-13T16:26:34;129.70;;;91.00;;
60665;SDS011;59128;44.642;21.188;2023-02-13T16:29:03;117.80;;;84.43;;
60665;SDS011;59128;44.642;21.188;2023-02-13T16:31:33;131.30;;;94.60;;
60665;SDS011;59128;44.642;21.188;2023-02-13T16:33:59;114.07;;;86.07;;
60665;SDS011;59128;44.642;21.188;2023-02-13T16:36:37;105.45;;;79.43;;
60665;SDS011;59128;44.642;21.188;2023-02-13T16:42:11;73.25;;;52.50;;
60665;SDS011;59128;44.642;21.188;2023-02-13T16:44:38;56.90;;;42.37;;
60665;SDS011;59128;44.642;21.188;2023-02-13T16:47:04;59.13;;;43.88;;
60665;SDS011;59128;44.642;21.188;2023-02-13T16:49:32;64.72;;;50.83;;
60665;SDS011;59128;44.642;21.188;2023-02-13T16:54:26;74.53;;;56.28;;
60665;SDS011;59128;44.642;21.188;2023-02-13T16:56:56;65.47;;;48.58;;
60665;SDS011;59128;44.642;21.188;2023-02-13T17:04:37;73.93;;;53.27;;
60665;SDS011;59128;44.642;21.188;2023-02-13T17:07:04;80.90;;;60.80;;